createdAt,value
2019-02-24T00:02:08.754Z,10.93
2019-02-24T00:04:55.834Z,11.23
2019-02-24T00:07:42.900Z,10.93
2019-02-24T00:10:30.595Z,15.60
2019-02-24T00:13:18.308Z,12.20
2019-02-24T00:16:05.542Z,12.33
2019-02-24T00:18:52.745Z,11.37
2019-02-24T00:21:42.595Z,10.60
2019-02-24T00:24:43.867Z,11.50
2019-02-24T00:30:37.461Z,11.07
2019-02-24T00:33:24.502Z,10.63
2019-02-24T00:36:26.225Z,10.20
2019-02-24T00:39:13.324Z,10.60
2019-02-24T00:42:01.438Z,9.73
2019-02-24T00:44:48.602Z,10.87
2019-02-24T00:56:54.915Z,10.53
2019-02-24T00:59:41.854Z,11.30
2019-02-24T01:02:28.999Z,15.65
2019-02-24T01:05:16.752Z,11.60
2019-02-24T01:08:04.171Z,11.47
2019-02-24T01:10:51.423Z,10.93
2019-02-24T01:16:45.427Z,13.20
2019-02-24T01:22:39.329Z,18.03
2019-02-24T01:28:47.447Z,16.03
2019-02-24T01:31:34.303Z,15.17
2019-02-24T01:37:28.081Z,11.47
2019-02-24T01:40:15.798Z,15.52
2019-02-24T01:43:03.995Z,12.67
2019-02-24T01:52:05.570Z,10.73
2019-02-24T02:01:03.881Z,11.20
2019-02-24T02:10:04.223Z,10.60
2019-02-24T02:15:58.484Z,10.23
2019-02-24T02:34:18.664Z,11.50
2019-02-24T02:37:06.441Z,11.00
2019-02-24T02:43:00.551Z,10.30
2019-02-24T02:45:48.094Z,10.47
2019-02-24T03:01:02.253Z,10.27
2019-02-24T03:03:49.860Z,11.03
2019-02-24T03:06:55.644Z,10.87
2019-02-24T03:16:03.060Z,10.57
2019-02-24T03:18:49.818Z,11.17
2019-02-24T03:21:44.546Z,9.73
2019-02-24T03:24:31.876Z,9.57
2019-02-24T03:27:20.585Z,11.00
2019-02-24T03:30:08.129Z,9.87
2019-02-24T03:36:01.729Z,11.20
2019-02-24T03:38:49.037Z,11.10
2019-02-24T03:41:36.466Z,9.87
2019-02-24T03:44:23.390Z,10.63
2019-02-24T03:47:18.889Z,10.60
2019-02-24T03:53:12.452Z,10.20
2019-02-24T03:55:59.793Z,10.67
2019-02-24T03:58:46.931Z,10.63
2019-02-24T04:04:43.561Z,10.57
2019-02-24T04:07:31.200Z,9.70
2019-02-24T04:28:59.226Z,9.90
2019-02-24T04:41:20.199Z,10.00
2019-02-24T04:44:08.267Z,10.37
2019-02-24T04:46:55.809Z,8.70
2019-02-24T04:49:43.340Z,10.53
2019-02-24T04:52:31.017Z,12.88
2019-02-24T04:55:18.546Z,12.73
2019-02-24T04:58:13.536Z,9.63
2019-02-24T05:01:01.086Z,9.17
2019-02-24T05:03:55.547Z,8.97
2019-02-24T05:06:43.083Z,12.10
2019-02-24T05:12:36.437Z,9.27
2019-02-24T05:18:29.817Z,12.13
2019-02-24T05:33:42.984Z,11.73
2019-02-24T05:36:31.402Z,8.63
2019-02-24T05:39:17.325Z,8.70
2019-02-24T05:42:04.830Z,11.63
2019-02-24T05:45:07.625Z,8.73
2019-02-24T05:54:07.547Z,8.37
2019-02-24T06:03:08.205Z,8.33
2019-02-24T06:09:01.830Z,8.17
2019-02-24T06:11:49.073Z,9.17
2019-02-24T06:14:36.539Z,9.13
2019-02-24T06:17:23.811Z,8.80
2019-02-24T06:20:12.100Z,12.15
2019-02-24T06:26:06.063Z,8.87
2019-02-24T06:28:53.317Z,9.20
2019-02-24T06:31:40.572Z,7.70
2019-02-24T06:34:27.722Z,8.20
2019-02-24T06:40:21.782Z,8.03
2019-02-24T06:43:08.903Z,7.93
2019-02-24T06:45:56.034Z,11.73
2019-02-24T06:48:43.536Z,8.27
2019-02-24T06:51:30.992Z,8.27
2019-02-24T06:54:18.320Z,8.90
2019-02-24T06:57:05.524Z,9.33
2019-02-24T06:59:53.235Z,10.00
2019-02-24T07:08:53.078Z,9.00
2019-02-24T07:11:40.075Z,8.90
2019-02-24T07:14:42.248Z,8.80
2019-02-24T07:17:29.484Z,9.03
2019-02-24T07:20:16.616Z,9.20
2019-02-24T07:23:03.598Z,9.10
2019-02-24T07:32:04.020Z,9.63
2019-02-24T07:34:51.372Z,9.83
2019-02-24T07:37:38.771Z,9.83
2019-02-24T07:40:26.031Z,10.63
2019-02-24T07:43:13.311Z,10.70
2019-02-24T07:52:13.466Z,9.83
2019-02-24T07:55:01.796Z,10.33
2019-02-24T07:57:48.954Z,10.03
2019-02-24T08:00:35.954Z,12.23
2019-02-24T08:03:23.375Z,11.90
2019-02-24T08:09:24.962Z,12.17
2019-02-24T08:15:20.546Z,12.00
2019-02-24T08:18:07.894Z,12.27
2019-02-24T08:20:55.745Z,12.20
2019-02-24T08:26:49.074Z,13.07
2019-02-24T08:29:36.788Z,12.83
2019-02-24T08:32:27.155Z,11.30
2019-02-24T08:35:14.429Z,11.57
2019-02-24T08:38:01.642Z,11.20
2019-02-24T08:40:49.971Z,11.37
2019-02-24T08:46:43.643Z,12.17
2019-02-24T08:49:31.273Z,11.23
2019-02-24T08:55:24.861Z,11.33
2019-02-24T08:58:12.200Z,12.57
2019-02-24T09:00:59.410Z,11.87
2019-02-24T09:03:46.812Z,11.90
2019-02-24T09:06:34.059Z,12.03
2019-02-24T09:12:28.440Z,12.53
2019-02-24T09:15:15.467Z,12.27
2019-02-24T09:18:02.963Z,11.83
2019-02-24T09:20:51.427Z,12.43
2019-02-24T09:29:52.780Z,12.57
2019-02-24T09:45:05.952Z,11.53
2019-02-24T09:47:55.121Z,11.07
2019-02-24T09:50:43.258Z,11.07
2019-02-24T09:53:30.780Z,12.63
2019-02-24T09:56:19.230Z,11.53
2019-02-24T09:59:08.194Z,12.30
2019-02-24T10:01:55.597Z,11.40
2019-02-24T10:07:50.509Z,10.27
2019-02-24T10:13:45.923Z,10.60
2019-02-24T10:19:42.590Z,11.53
2019-02-24T10:25:36.368Z,12.77
2019-02-24T10:28:24.595Z,11.60
2019-02-24T10:31:19.595Z,12.50
2019-02-24T10:37:06.103Z,12.43
2019-02-24T10:43:06.777Z,11.97
2019-02-24T10:46:01.979Z,11.93
2019-02-24T10:48:49.247Z,10.87
2019-02-24T10:51:37.609Z,11.20
2019-02-24T11:00:38.797Z,10.97
2019-02-24T11:03:25.864Z,10.30
2019-02-24T11:06:15.041Z,10.30
2019-02-24T11:15:15.317Z,11.57
2019-02-24T11:18:03.431Z,11.40
2019-02-24T11:20:50.790Z,11.50
2019-02-24T11:23:37.966Z,10.57
2019-02-24T11:29:42.106Z,11.15
2019-02-24T11:32:29.224Z,11.32
2019-02-24T11:35:23.741Z,11.02
2019-02-24T11:38:11.240Z,11.60
2019-02-24T11:41:01.063Z,11.12
2019-02-24T11:43:46.386Z,10.85
2019-02-24T11:46:34.223Z,12.05
2019-02-24T11:49:21.702Z,12.07
2019-02-24T11:52:09.076Z,11.97
2019-02-24T11:54:56.548Z,10.70
2019-02-24T11:57:51.569Z,11.50
2019-02-24T12:00:40.527Z,11.75
2019-02-24T12:03:28.901Z,10.55
2019-02-24T12:09:24.595Z,11.12
2019-02-24T12:15:18.791Z,11.02
2019-02-24T12:21:13.157Z,11.35
2019-02-24T12:30:19.130Z,9.93
2019-02-24T12:33:21.036Z,10.82
2019-02-24T12:36:23.548Z,10.93
2019-02-24T12:39:10.769Z,10.45
2019-02-24T12:42:05.510Z,10.27
2019-02-24T12:44:52.681Z,10.55
2019-02-24T12:47:40.185Z,10.65
2019-02-24T12:50:27.933Z,10.32
2019-02-24T13:02:36.832Z,10.43
2019-02-24T13:05:23.773Z,10.07
2019-02-24T13:08:25.799Z,11.02
2019-02-24T13:11:13.176Z,9.75
2019-02-24T13:14:00.234Z,10.65
2019-02-24T13:20:10.024Z,10.40
2019-02-24T13:23:10.579Z,10.60
2019-02-24T13:32:14.950Z,9.95
2019-02-24T13:34:58.856Z,10.27
2019-02-24T13:37:53.587Z,10.02
2019-02-24T13:40:40.995Z,10.30
2019-02-24T13:43:28.729Z,10.50
2019-02-24T13:55:46.602Z,10.40
2019-02-24T13:58:34.284Z,10.77
2019-02-24T14:04:38.148Z,9.40
2019-02-24T14:07:25.494Z,10.65
2019-02-24T14:10:12.412Z,12.40
2019-02-24T14:12:59.772Z,11.65
2019-02-24T14:15:54.471Z,10.82
2019-02-24T14:18:41.888Z,12.05
2019-02-24T14:21:29.265Z,11.35
2019-02-24T14:24:24.020Z,11.02
2019-02-24T14:27:12.138Z,11.60
2019-02-24T14:29:59.796Z,12.48
2019-02-24T14:32:47.402Z,11.55
2019-02-24T14:35:49.200Z,11.93
2019-02-24T14:44:56.552Z,10.23
2019-02-24T14:47:43.861Z,11.50
2019-02-24T14:50:31.490Z,11.57
2019-02-24T14:53:18.977Z,10.65
2019-02-24T14:56:06.703Z,10.23
2019-02-24T14:58:53.975Z,10.93
2019-02-24T15:04:48.342Z,11.55
2019-02-24T15:07:35.912Z,11.02
2019-02-24T15:10:23.116Z,10.88
2019-02-24T15:13:10.645Z,10.50
2019-02-24T15:19:05.084Z,11.10
2019-02-24T15:21:52.307Z,11.20
2019-02-24T15:24:40.855Z,10.32
2019-02-24T15:30:41.855Z,10.55
2019-02-24T15:33:28.839Z,10.95
2019-02-24T15:39:37.354Z,11.25
2019-02-24T15:42:24.497Z,11.20
2019-02-24T15:45:11.722Z,10.57
2019-02-24T15:48:00.038Z,10.40
2019-02-24T15:50:47.485Z,10.45
2019-02-24T15:59:48.748Z,9.27
2019-02-24T16:05:42.297Z,10.45
2019-02-24T16:14:45.654Z,9.10
2019-02-24T16:17:33.155Z,10.48
2019-02-24T16:20:26.625Z,9.98
2019-02-24T16:23:16.167Z,11.15
2019-02-24T16:26:03.329Z,9.93
2019-02-24T16:28:50.525Z,9.98
2019-02-24T16:31:38.100Z,10.37
2019-02-24T16:43:46.639Z,10.63
2019-02-24T16:46:34.940Z,12.17
2019-02-24T16:49:22.633Z,12.40
2019-02-24T16:52:10.346Z,12.50
2019-02-24T16:54:57.571Z,12.27
2019-02-24T16:57:44.606Z,12.43
2019-02-24T17:00:31.756Z,11.70
2019-02-24T17:03:20.173Z,11.43
2019-02-24T17:06:06.194Z,11.37
2019-02-24T17:09:00.596Z,13.43
2019-02-24T17:11:40.641Z,11.33
2019-02-24T17:14:28.634Z,11.00
2019-02-24T17:20:28.475Z,9.90
2019-02-24T17:26:21.825Z,10.87
2019-02-24T17:35:22.651Z,11.33
2019-02-24T17:41:15.744Z,10.70
2019-02-24T17:44:03.518Z,9.77
2019-02-24T17:46:51.637Z,10.30
2019-02-24T17:49:39.907Z,9.70
2019-02-24T17:55:33.936Z,9.67
2019-02-24T18:01:28.670Z,8.80
2019-02-24T18:04:19.413Z,11.02
2019-02-24T18:07:08.196Z,11.20
2019-02-24T18:09:55.839Z,12.93
2019-02-24T18:12:44.295Z,11.40
2019-02-24T18:15:31.405Z,10.20
2019-02-24T18:18:18.522Z,11.33
2019-02-24T18:21:06.633Z,17.27
2019-02-24T18:26:59.526Z,13.33
2019-02-24T18:29:49.499Z,13.20
2019-02-24T18:32:36.485Z,11.70
2019-02-24T18:35:31.389Z,10.67
2019-02-24T18:38:18.534Z,11.73
2019-02-24T18:41:06.055Z,10.70
2019-02-24T18:44:00.949Z,8.77
2019-02-24T18:46:55.118Z,10.37
2019-02-24T18:49:42.428Z,10.67
2019-02-24T18:52:29.435Z,9.77
2019-02-24T18:55:17.900Z,11.30
2019-02-24T18:58:07.329Z,11.13
2019-02-24T19:00:56.559Z,13.70
2019-02-24T19:06:52.374Z,11.70
2019-02-24T19:09:40.387Z,11.27
2019-02-24T19:18:48.529Z,13.98
2019-02-24T19:21:36.651Z,11.87
2019-02-24T19:27:29.935Z,10.53
2019-02-24T19:33:23.305Z,9.33
2019-02-24T19:36:10.831Z,8.87
2019-02-24T19:38:58.050Z,9.90
2019-02-24T19:41:48.219Z,9.97
2019-02-24T19:44:39.840Z,10.83
2019-02-24T19:47:27.283Z,11.33
2019-02-24T19:50:29.149Z,11.23
2019-02-24T19:53:17.072Z,11.03
2019-02-24T19:56:04.293Z,10.07
2019-02-24T20:11:30.313Z,11.30
2019-02-24T20:14:18.455Z,14.20
2019-02-24T20:17:06.845Z,13.43
2019-02-24T20:23:15.008Z,15.67
2019-02-24T20:26:02.946Z,13.97
2019-02-24T20:28:54.059Z,12.23
2019-02-24T20:37:53.595Z,14.43
2019-02-24T20:44:01.483Z,13.10
2019-02-24T20:50:02.527Z,15.37
2019-02-24T20:52:49.846Z,15.10
2019-02-24T20:58:43.149Z,13.23
2019-02-24T21:01:30.997Z,12.90
2019-02-24T21:04:18.488Z,14.00
2019-02-24T21:07:05.462Z,13.77
2019-02-24T21:09:52.733Z,14.40
2019-02-24T21:12:39.977Z,13.90
2019-02-24T21:15:28.190Z,17.92
2019-02-24T21:18:15.514Z,14.83
2019-02-24T21:21:02.628Z,14.80
2019-02-24T21:23:50.362Z,15.03
2019-02-24T21:26:37.377Z,12.80
2019-02-24T21:32:30.540Z,14.00
2019-02-24T21:35:17.776Z,13.10
2019-02-24T21:38:05.784Z,13.57
2019-02-24T21:41:07.253Z,12.30
2019-02-24T21:43:54.448Z,12.60
2019-02-24T21:46:41.707Z,12.87
2019-02-24T21:49:29.417Z,12.77
2019-02-24T21:52:17.100Z,12.53
2019-02-24T21:55:05.677Z,12.80
2019-02-24T21:57:53.123Z,13.40
2019-02-24T22:00:40.239Z,12.50
2019-02-24T22:03:27.664Z,13.13
2019-02-24T22:06:14.985Z,13.43
2019-02-24T22:09:03.105Z,13.30
2019-02-24T22:14:57.701Z,13.57
2019-02-24T22:17:45.030Z,12.93
2019-02-24T22:23:38.418Z,11.87
2019-02-24T22:26:25.342Z,11.10
2019-02-24T22:29:12.781Z,11.87
2019-02-24T22:32:00.278Z,12.07
2019-02-24T22:37:54.858Z,12.20
2019-02-24T22:43:49.356Z,15.52
2019-02-24T22:46:37.630Z,11.87
2019-02-24T22:52:31.294Z,10.93
2019-02-24T22:55:18.592Z,10.70
2019-02-24T22:58:05.991Z,11.03
2019-02-24T23:00:55.728Z,12.00
2019-02-24T23:03:42.728Z,11.47
2019-02-24T23:09:39.150Z,11.07
2019-02-24T23:12:26.987Z,10.37
2019-02-24T23:15:14.944Z,11.37
2019-02-24T23:18:01.960Z,10.87
2019-02-24T23:20:48.974Z,11.10
2019-02-24T23:23:36.701Z,12.07
2019-02-24T23:29:32.837Z,11.40
2019-02-24T23:32:20.361Z,11.10
2019-02-24T23:35:07.386Z,11.10
2019-02-24T23:37:55.003Z,12.20
2019-02-24T23:40:44.159Z,12.20
2019-02-24T23:49:44.100Z,10.90
2019-02-24T23:52:32.203Z,15.05
2019-02-24T23:55:20.456Z,11.50
2019-02-24T23:58:07.910Z,10.77
